sensor_id;sensor_type;location;lat;lon;timestamp;P1;durP1;ratioP1;P2;durP2;ratioP2
43696;SDS011;29301;47.620;19.560;2023-01-04T00:01:30;0.80;;;0.60;;
43696;SDS011;29301;47.620;19.560;2023-01-04T00:03:56;0.90;;;0.60;;
43696;SDS011;29301;47.620;19.560;2023-01-04T00:06:22;0.90;;;0.60;;
43696;SDS011;29301;47.620;19.560;2023-01-04T00:08:48;1.00;;;0.70;;
43696;SDS011;29301;47.620;19.560;2023-01-04T00:11:15;0.98;;;0.70;;
43696;SDS011;29301;47.620;19.560;2023-01-04T00:13:42;0.90;;;0.60;;
43696;SDS011;29301;47.620;19.560;2023-01-04T00:16:10;0.80;;;0.60;;
43696;SDS011;29301;47.620;19.560;2023-01-04T00:18:41;0.80;;;0.60;;
43696;SDS011;29301;47.620;19.560;2023-01-04T00:21:11;0.80;;;0.60;;
43696;SDS011;29301;47.620;19.560;2023-01-04T00:23:41;0.85;;;0.60;;
43696;SDS011;29301;47.620;19.560;2023-01-04T00:26:09;0.80;;;0.60;;
43696;SDS011;29301;47.620;19.560;2023-01-04T00:28:38;0.80;;;0.60;;
43696;SDS011;29301;47.620;19.560;2023-01-04T00:31:04;0.80;;;0.60;;
43696;SDS011;29301;47.620;19.560;2023-01-04T00:33:31;0.80;;;0.60;;
43696;SDS011;29301;47.620;19.560;2023-01-04T00:36:04;1.00;;;0.70;;
43696;SDS011;29301;47.620;19.560;2023-01-04T00:38:31;0.80;;;0.60;;
43696;SDS011;29301;47.620;19.560;2023-01-04T00:40:58;0.80;;;0.60;;
43696;SDS011;29301;47.620;19.560;2023-01-04T00:43:24;0.90;;;0.60;;
43696;SDS011;29301;47.620;19.560;2023-01-04T00:45:50;1.00;;;0.70;;
43696;SDS011;29301;47.620;19.560;2023-01-04T00:48:16;0.80;;;0.60;;
43696;SDS011;29301;47.620;19.560;2023-01-04T00:50:42;0.80;;;0.60;;
43696;SDS011;29301;47.620;19.560;2023-01-04T00:53:09;0.80;;;0.60;;
43696;SDS011;29301;47.620;19.560;2023-01-04T00:55:36;0.90;;;0.70;;
43696;SDS011;29301;47.620;19.560;2023-01-04T00:58:01;0.80;;;0.60;;
43696;SDS011;29301;47.620;19.560;2023-01-04T01:00:27;0.80;;;0.60;;
43696;SDS011;29301;47.620;19.560;2023-01-04T01:02:53;0.80;;;0.60;;
43696;SDS011;29301;47.620;19.560;2023-01-04T01:05:18;0.90;;;0.70;;
43696;SDS011;29301;47.620;19.560;2023-01-04T01:07:44;0.90;;;0.60;;
43696;SDS011;29301;47.620;19.560;2023-01-04T01:10:09;1.00;;;0.70;;
43696;SDS011;29301;47.620;19.560;2023-01-04T01:12:35;0.90;;;0.60;;
43696;SDS011;29301;47.620;19.560;2023-01-04T01:15:01;0.88;;;0.60;;
43696;SDS011;29301;47.620;19.560;2023-01-04T01:17:26;1.00;;;0.70;;
43696;SDS011;29301;47.620;19.560;2023-01-04T01:19:52;0.90;;;0.60;;
43696;SDS011;29301;47.620;19.560;2023-01-04T01:22:18;0.85;;;0.60;;
43696;SDS011;29301;47.620;19.560;2023-01-04T01:24:43;0.80;;;0.60;;
43696;SDS011;29301;47.620;19.560;2023-01-04T01:27:09;0.85;;;0.70;;
43696;SDS011;29301;47.620;19.560;2023-01-04T01:29:35;0.90;;;0.70;;
43696;SDS011;29301;47.620;19.560;2023-01-04T01:32:00;0.90;;;0.60;;
43696;SDS011;29301;47.620;19.560;2023-01-04T01:34:26;1.00;;;0.60;;
43696;SDS011;29301;47.620;19.560;2023-01-04T01:36:52;0.90;;;0.60;;
43696;SDS011;29301;47.620;19.560;2023-01-04T01:39:17;1.00;;;0.70;;
43696;SDS011;29301;47.620;19.560;2023-01-04T01:41:43;0.90;;;0.70;;
43696;SDS011;29301;47.620;19.560;2023-01-04T01:51:58;0.80;;;0.60;;
43696;SDS011;29301;47.620;19.560;2023-01-04T01:54:31;0.80;;;0.60;;
43696;SDS011;29301;47.620;19.560;2023-01-04T01:57:02;0.85;;;0.70;;
43696;SDS011;29301;47.620;19.560;2023-01-04T01:59:31;0.80;;;0.60;;
43696;SDS011;29301;47.620;19.560;2023-01-04T02:02:00;0.90;;;0.60;;
43696;SDS011;29301;47.620;19.560;2023-01-04T02:04:26;0.88;;;0.60;;
43696;SDS011;29301;47.620;19.560;2023-01-04T02:06:52;1.00;;;0.70;;
43696;SDS011;29301;47.620;19.560;2023-01-04T02:09:20;0.80;;;0.60;;
43696;SDS011;29301;47.620;19.560;2023-01-04T02:11:47;1.00;;;0.63;;
43696;SDS011;29301;47.620;19.560;2023-01-04T02:14:13;0.80;;;0.60;;
43696;SDS011;29301;47.620;19.560;2023-01-04T02:20:00;0.93;;;0.70;;
43696;SDS011;29301;47.620;19.560;2023-01-04T02:31:57;0.90;;;0.60;;
43696;SDS011;29301;47.620;19.560;2023-01-04T02:43:11;0.90;;;0.63;;
43696;SDS011;29301;47.620;19.560;2023-01-04T02:45:31;0.90;;;0.70;;
43696;SDS011;29301;47.620;19.560;2023-01-04T02:50:52;1.00;;;0.70;;
43696;SDS011;29301;47.620;19.560;2023-01-04T02:53:25;1.10;;;0.70;;
43696;SDS011;29301;47.620;19.560;2023-01-04T03:06:47;0.90;;;0.70;;
43696;SDS011;29301;47.620;19.560;2023-01-04T03:09:22;1.00;;;0.70;;
43696;SDS011;29301;47.620;19.560;2023-01-04T03:12:01;0.90;;;0.70;;
43696;SDS011;29301;47.620;19.560;2023-01-04T03:14:52;0.90;;;0.70;;
43696;SDS011;29301;47.620;19.560;2023-01-04T03:17:25;0.90;;;0.70;;
43696;SDS011;29301;47.620;19.560;2023-01-04T03:19:53;0.98;;;0.70;;
43696;SDS011;29301;47.620;19.560;2023-01-04T03:22:22;1.05;;;0.70;;
43696;SDS011;29301;47.620;19.560;2023-01-04T03:25:28;1.00;;;0.70;;
43696;SDS011;29301;47.620;19.560;2023-01-04T03:28:16;1.00;;;0.70;;
43696;SDS011;29301;47.620;19.560;2023-01-04T03:31:10;0.90;;;0.70;;
43696;SDS011;29301;47.620;19.560;2023-01-04T03:33:58;1.10;;;0.70;;
43696;SDS011;29301;47.620;19.560;2023-01-04T03:37:29;1.10;;;0.70;;
43696;SDS011;29301;47.620;19.560;2023-01-04T03:42:30;1.10;;;0.70;;
43696;SDS011;29301;47.620;19.560;2023-01-04T03:48:08;1.10;;;0.70;;
43696;SDS011;29301;47.620;19.560;2023-01-04T03:53:21;1.10;;;0.70;;
43696;SDS011;29301;47.620;19.560;2023-01-04T03:55:49;1.00;;;0.70;;
43696;SDS011;29301;47.620;19.560;2023-01-04T03:58:17;1.00;;;0.70;;
43696;SDS011;29301;47.620;19.560;2023-01-04T04:00:44;1.20;;;0.80;;
43696;SDS011;29301;47.620;19.560;2023-01-04T04:03:11;1.00;;;0.70;;
43696;SDS011;29301;47.620;19.560;2023-01-04T04:05:38;1.20;;;0.80;;
43696;SDS011;29301;47.620;19.560;2023-01-04T04:08:24;1.10;;;0.70;;
43696;SDS011;29301;47.620;19.560;2023-01-04T04:10:59;1.20;;;0.80;;
43696;SDS011;29301;47.620;19.560;2023-01-04T04:13:46;1.20;;;0.75;;
43696;SDS011;29301;47.620;19.560;2023-01-04T04:16:13;1.10;;;0.77;;
43696;SDS011;29301;47.620;19.560;2023-01-04T04:18:39;1.20;;;0.80;;
43696;SDS011;29301;47.620;19.560;2023-01-04T04:21:04;1.17;;;0.80;;
43696;SDS011;29301;47.620;19.560;2023-01-04T04:23:30;1.10;;;0.80;;
43696;SDS011;29301;47.620;19.560;2023-01-04T04:25:56;1.10;;;0.70;;
43696;SDS011;29301;47.620;19.560;2023-01-04T04:28:22;1.10;;;0.73;;
43696;SDS011;29301;47.620;19.560;2023-01-04T04:30:50;1.10;;;0.70;;
43696;SDS011;29301;47.620;19.560;2023-01-04T04:33:16;1.20;;;0.80;;
43696;SDS011;29301;47.620;19.560;2023-01-04T04:35:42;1.20;;;0.80;;
43696;SDS011;29301;47.620;19.560;2023-01-04T04:38:07;1.10;;;0.70;;
43696;SDS011;29301;47.620;19.560;2023-01-04T04:40:33;1.20;;;0.80;;
43696;SDS011;29301;47.620;19.560;2023-01-04T04:43:18;1.10;;;0.80;;
43696;SDS011;29301;47.620;19.560;2023-01-04T04:45:44;1.20;;;0.80;;
43696;SDS011;29301;47.620;19.560;2023-01-04T04:48:09;1.10;;;0.70;;
43696;SDS011;29301;47.620;19.560;2023-01-04T04:50:35;1.20;;;0.80;;
43696;SDS011;29301;47.620;19.560;2023-01-04T04:53:01;1.10;;;0.70;;
43696;SDS011;29301;47.620;19.560;2023-01-04T04:55:26;1.10;;;0.80;;
43696;SDS011;29301;47.620;19.560;2023-01-04T04:57:52;1.08;;;0.70;;
43696;SDS011;29301;47.620;19.560;2023-01-04T05:00:18;1.20;;;0.80;;
43696;SDS011;29301;47.620;19.560;2023-01-04T05:02:43;1.10;;;0.70;;
43696;SDS011;29301;47.620;19.560;2023-01-04T05:05:09;1.20;;;0.75;;
43696;SDS011;29301;47.620;19.560;2023-01-04T05:07:35;1.20;;;0.80;;
43696;SDS011;29301;47.620;19.560;2023-01-04T05:10:00;1.10;;;0.70;;
43696;SDS011;29301;47.620;19.560;2023-01-04T05:12:26;1.10;;;0.77;;
43696;SDS011;29301;47.620;19.560;2023-01-04T05:15:10;1.20;;;0.80;;
43696;SDS011;29301;47.620;19.560;2023-01-04T05:17:36;1.10;;;0.80;;
43696;SDS011;29301;47.620;19.560;2023-01-04T05:20:02;1.20;;;0.80;;
43696;SDS011;29301;47.620;19.560;2023-01-04T05:22:28;1.10;;;0.73;;
43696;SDS011;29301;47.620;19.560;2023-01-04T05:24:54;1.10;;;0.80;;
43696;SDS011;29301;47.620;19.560;2023-01-04T05:27:19;1.20;;;0.73;;
43696;SDS011;29301;47.620;19.560;2023-01-04T05:29:45;1.20;;;0.80;;
43696;SDS011;29301;47.620;19.560;2023-01-04T05:32:29;1.13;;;0.80;;
43696;SDS011;29301;47.620;19.560;2023-01-04T05:34:55;1.20;;;0.80;;
43696;SDS011;29301;47.620;19.560;2023-01-04T05:37:21;1.20;;;0.80;;
43696;SDS011;29301;47.620;19.560;2023-01-04T05:39:46;1.20;;;0.80;;
43696;SDS011;29301;47.620;19.560;2023-01-04T05:42:12;1.25;;;0.80;;
43696;SDS011;29301;47.620;19.560;2023-01-04T05:44:53;1.10;;;0.73;;
43696;SDS011;29301;47.620;19.560;2023-01-04T05:47:20;1.13;;;0.80;;
43696;SDS011;29301;47.620;19.560;2023-01-04T05:49:47;1.10;;;0.80;;
43696;SDS011;29301;47.620;19.560;2023-01-04T05:52:12;1.20;;;0.80;;
43696;SDS011;29301;47.620;19.560;2023-01-04T05:54:38;1.20;;;0.80;;
43696;SDS011;29301;47.620;19.560;2023-01-04T05:57:04;1.20;;;0.80;;
43696;SDS011;29301;47.620;19.560;2023-01-04T05:59:30;1.20;;;0.80;;
43696;SDS011;29301;47.620;19.560;2023-01-04T06:01:56;1.17;;;0.80;;
43696;SDS011;29301;47.620;19.560;2023-01-04T06:04:21;1.20;;;0.80;;
43696;SDS011;29301;47.620;19.560;2023-01-04T06:06:47;1.20;;;0.80;;
43696;SDS011;29301;47.620;19.560;2023-01-04T06:09:13;1.20;;;0.80;;
43696;SDS011;29301;47.620;19.560;2023-01-04T06:11:38;1.10;;;0.77;;
43696;SDS011;29301;47.620;19.560;2023-01-04T06:14:04;1.20;;;0.80;;
43696;SDS011;29301;47.620;19.560;2023-01-04T06:16:30;1.20;;;0.80;;
43696;SDS011;29301;47.620;19.560;2023-01-04T06:18:55;1.10;;;0.80;;
43696;SDS011;29301;47.620;19.560;2023-01-04T06:21:21;1.10;;;0.70;;
43696;SDS011;29301;47.620;19.560;2023-01-04T06:23:49;1.13;;;0.80;;
43696;SDS011;29301;47.620;19.560;2023-01-04T06:26:15;1.20;;;0.80;;
43696;SDS011;29301;47.620;19.560;2023-01-04T06:28:41;1.20;;;0.80;;
43696;SDS011;29301;47.620;19.560;2023-01-04T06:31:07;1.20;;;0.80;;
43696;SDS011;29301;47.620;19.560;2023-01-04T06:33:34;1.20;;;0.80;;
43696;SDS011;29301;47.620;19.560;2023-01-04T06:35:59;1.20;;;0.80;;
43696;SDS011;29301;47.620;19.560;2023-01-04T06:38:25;1.20;;;0.80;;
43696;SDS011;29301;47.620;19.560;2023-01-04T06:40:51;1.20;;;0.80;;
43696;SDS011;29301;47.620;19.560;2023-01-04T06:43:17;1.20;;;0.80;;
43696;SDS011;29301;47.620;19.560;2023-01-04T06:45:43;1.20;;;0.80;;
43696;SDS011;29301;47.620;19.560;2023-01-04T06:48:08;1.20;;;0.80;;
43696;SDS011;29301;47.620;19.560;2023-01-04T06:50:34;1.20;;;0.80;;
43696;SDS011;29301;47.620;19.560;2023-01-04T06:53:00;1.20;;;0.80;;
43696;SDS011;29301;47.620;19.560;2023-01-04T06:55:26;1.20;;;0.80;;
43696;SDS011;29301;47.620;19.560;2023-01-04T06:57:53;1.17;;;0.80;;
43696;SDS011;29301;47.620;19.560;2023-01-04T07:00:19;1.20;;;0.80;;
43696;SDS011;29301;47.620;19.560;2023-01-04T07:02:45;1.20;;;0.80;;
43696;SDS011;29301;47.620;19.560;2023-01-04T07:05:11;1.20;;;0.80;;
43696;SDS011;29301;47.620;19.560;2023-01-04T07:07:37;1.30;;;0.80;;
43696;SDS011;29301;47.620;19.560;2023-01-04T07:10:02;1.20;;;0.80;;
43696;SDS011;29301;47.620;19.560;2023-01-04T07:12:28;1.20;;;0.80;;
43696;SDS011;29301;47.620;19.560;2023-01-04T07:14:57;1.20;;;0.80;;
43696;SDS011;29301;47.620;19.560;2023-01-04T07:17:23;1.20;;;0.80;;
43696;SDS011;29301;47.620;19.560;2023-01-04T07:19:48;1.20;;;0.80;;
43696;SDS011;29301;47.620;19.560;2023-01-04T07:22:14;1.20;;;0.80;;
43696;SDS011;29301;47.620;19.560;2023-01-04T07:24:40;1.20;;;0.80;;
43696;SDS011;29301;47.620;19.560;2023-01-04T07:27:08;1.30;;;0.80;;
43696;SDS011;29301;47.620;19.560;2023-01-04T07:29:34;1.30;;;0.90;;
43696;SDS011;29301;47.620;19.560;2023-01-04T07:32:00;1.20;;;0.80;;
43696;SDS011;29301;47.620;19.560;2023-01-04T07:34:26;1.20;;;0.80;;
43696;SDS011;29301;47.620;19.560;2023-01-04T07:36:52;1.20;;;0.80;;
43696;SDS011;29301;47.620;19.560;2023-01-04T07:39:19;1.20;;;0.80;;
43696;SDS011;29301;47.620;19.560;2023-01-04T07:41:45;1.20;;;0.80;;
43696;SDS011;29301;47.620;19.560;2023-01-04T07:44:12;1.20;;;0.80;;
43696;SDS011;29301;47.620;19.560;2023-01-04T07:46:39;1.25;;;0.82;;
43696;SDS011;29301;47.620;19.560;2023-01-04T07:49:08;1.20;;;0.80;;
43696;SDS011;29301;47.620;19.560;2023-01-04T07:51:37;1.20;;;0.80;;
43696;SDS011;29301;47.620;19.560;2023-01-04T07:54:04;1.10;;;0.70;;
43696;SDS011;29301;47.620;19.560;2023-01-04T07:56:29;1.20;;;0.80;;
43696;SDS011;29301;47.620;19.560;2023-01-04T07:58:55;1.10;;;0.80;;
43696;SDS011;29301;47.620;19.560;2023-01-04T08:01:23;1.20;;;0.80;;
43696;SDS011;29301;47.620;19.560;2023-01-04T08:03:50;1.17;;;0.80;;
43696;SDS011;29301;47.620;19.560;2023-01-04T08:06:17;1.10;;;0.80;;
43696;SDS011;29301;47.620;19.560;2023-01-04T08:08:44;1.20;;;0.80;;
43696;SDS011;29301;47.620;19.560;2023-01-04T08:11:11;1.20;;;0.80;;
43696;SDS011;29301;47.620;19.560;2023-01-04T08:13:41;1.20;;;0.80;;
43696;SDS011;29301;47.620;19.560;2023-01-04T08:16:07;1.20;;;0.80;;
43696;SDS011;29301;47.620;19.560;2023-01-04T08:18:41;1.20;;;0.80;;
43696;SDS011;29301;47.620;19.560;2023-01-04T08:21:07;1.10;;;0.80;;
43696;SDS011;29301;47.620;19.560;2023-01-04T08:23:33;1.20;;;0.80;;
43696;SDS011;29301;47.620;19.560;2023-01-04T08:26:04;1.20;;;0.80;;
43696;SDS011;29301;47.620;19.560;2023-01-04T08:28:31;1.20;;;0.80;;
43696;SDS011;29301;47.620;19.560;2023-01-04T08:30:56;1.27;;;0.90;;
43696;SDS011;29301;47.620;19.560;2023-01-04T08:33:23;1.30;;;0.80;;
43696;SDS011;29301;47.620;19.560;2023-01-04T08:35:49;1.20;;;0.90;;
43696;SDS011;29301;47.620;19.560;2023-01-04T08:38:15;1.20;;;0.80;;
43696;SDS011;29301;47.620;19.560;2023-01-04T08:40:40;1.10;;;0.70;;
43696;SDS011;29301;47.620;19.560;2023-01-04T08:43:06;1.10;;;0.75;;
43696;SDS011;29301;47.620;19.560;2023-01-04T08:45:31;1.10;;;0.70;;
43696;SDS011;29301;47.620;19.560;2023-01-04T08:47:57;1.10;;;0.70;;
43696;SDS011;29301;47.620;19.560;2023-01-04T08:50:23;1.15;;;0.70;;
43696;SDS011;29301;47.620;19.560;2023-01-04T08:52:48;1.05;;;0.70;;
43696;SDS011;29301;47.620;19.560;2023-01-04T08:55:14;1.00;;;0.70;;
43696;SDS011;29301;47.620;19.560;2023-01-04T08:57:40;0.93;;;0.70;;
43696;SDS011;29301;47.620;19.560;2023-01-04T09:00:08;1.10;;;0.70;;
43696;SDS011;29301;47.620;19.560;2023-01-04T09:02:34;1.00;;;0.70;;
43696;SDS011;29301;47.620;19.560;2023-01-04T09:05:00;1.10;;;0.70;;
43696;SDS011;29301;47.620;19.560;2023-01-04T09:07:28;1.00;;;0.70;;
43696;SDS011;29301;47.620;19.560;2023-01-04T09:09:55;0.90;;;0.68;;
43696;SDS011;29301;47.620;19.560;2023-01-04T09:12:21;0.90;;;0.70;;
43696;SDS011;29301;47.620;19.560;2023-01-04T09:14:47;0.95;;;0.70;;
43696;SDS011;29301;47.620;19.560;2023-01-04T09:17:13;0.90;;;0.60;;
43696;SDS011;29301;47.620;19.560;2023-01-04T09:19:39;0.90;;;0.70;;
43696;SDS011;29301;47.620;19.560;2023-01-04T09:22:05;0.90;;;0.60;;
43696;SDS011;29301;47.620;19.560;2023-01-04T09:24:33;0.90;;;0.70;;
43696;SDS011;29301;47.620;19.560;2023-01-04T09:26:59;0.90;;;0.60;;
43696;SDS011;29301;47.620;19.560;2023-01-04T09:29:25;0.80;;;0.60;;
43696;SDS011;29301;47.620;19.560;2023-01-04T09:31:52;0.90;;;0.60;;
43696;SDS011;29301;47.620;19.560;2023-01-04T09:34:18;0.90;;;0.60;;
43696;SDS011;29301;47.620;19.560;2023-01-04T09:36:44;0.80;;;0.60;;
43696;SDS011;29301;47.620;19.560;2023-01-04T09:39:11;0.80;;;0.60;;
43696;SDS011;29301;47.620;19.560;2023-01-04T09:41:38;0.82;;;0.60;;
43696;SDS011;29301;47.620;19.560;2023-01-04T09:44:56;0.70;;;0.60;;
43696;SDS011;29301;47.620;19.560;2023-01-04T09:54:28;0.80;;;0.60;;
43696;SDS011;29301;47.620;19.560;2023-01-04T09:57:01;0.80;;;0.60;;
43696;SDS011;29301;47.620;19.560;2023-01-04T09:59:29;0.80;;;0.60;;
43696;SDS011;29301;47.620;19.560;2023-01-04T10:01:58;0.80;;;0.60;;
43696;SDS011;29301;47.620;19.560;2023-01-04T10:04:35;0.70;;;0.50;;
43696;SDS011;29301;47.620;19.560;2023-01-04T10:07:25;0.80;;;0.60;;
43696;SDS011;29301;47.620;19.560;2023-01-04T10:09:53;0.90;;;0.60;;
43696;SDS011;29301;47.620;19.560;2023-01-04T10:26:12;0.80;;;0.60;;
43696;SDS011;29301;47.620;19.560;2023-01-04T10:28:46;0.70;;;0.50;;
43696;SDS011;29301;47.620;19.560;2023-01-04T10:36:40;0.70;;;0.60;;
43696;SDS011;29301;47.620;19.560;2023-01-04T10:39:18;0.80;;;0.60;;
43696;SDS011;29301;47.620;19.560;2023-01-04T10:41:57;0.80;;;0.60;;
43696;SDS011;29301;47.620;19.560;2023-01-04T10:47:14;0.80;;;0.50;;
43696;SDS011;29301;47.620;19.560;2023-01-04T10:49:52;0.70;;;0.60;;
43696;SDS011;29301;47.620;19.560;2023-01-04T10:52:27;0.70;;;0.50;;
43696;SDS011;29301;47.620;19.560;2023-01-04T10:55:02;0.70;;;0.60;;
43696;SDS011;29301;47.620;19.560;2023-01-04T10:57:37;0.70;;;0.50;;
43696;SDS011;29301;47.620;19.560;2023-01-04T11:00:10;0.80;;;0.60;;
43696;SDS011;29301;47.620;19.560;2023-01-04T11:02:47;0.80;;;0.60;;
43696;SDS011;29301;47.620;19.560;2023-01-04T11:05:29;0.70;;;0.60;;
43696;SDS011;29301;47.620;19.560;2023-01-04T11:08:12;0.80;;;0.60;;
43696;SDS011;29301;47.620;19.560;2023-01-04T11:10:52;0.80;;;0.60;;
43696;SDS011;29301;47.620;19.560;2023-01-04T11:13:24;0.80;;;0.60;;
43696;SDS011;29301;47.620;19.560;2023-01-04T11:15:50;0.80;;;0.60;;
43696;SDS011;29301;47.620;19.560;2023-01-04T11:18:16;0.80;;;0.60;;
43696;SDS011;29301;47.620;19.560;2023-01-04T11:20:42;0.80;;;0.60;;
43696;SDS011;29301;47.620;19.560;2023-01-04T11:23:11;0.70;;;0.50;;
43696;SDS011;29301;47.620;19.560;2023-01-04T11:25:43;0.80;;;0.60;;
43696;SDS011;29301;47.620;19.560;2023-01-04T11:28:24;0.80;;;0.60;;
43696;SDS011;29301;47.620;19.560;2023-01-04T11:36:36;0.70;;;0.50;;
43696;SDS011;29301;47.620;19.560;2023-01-04T11:39:17;0.82;;;0.60;;
43696;SDS011;29301;47.620;19.560;2023-01-04T11:41:56;0.70;;;0.50;;
43696;SDS011;29301;47.620;19.560;2023-01-04T11:44:24;0.70;;;0.50;;
43696;SDS011;29301;47.620;19.560;2023-01-04T11:47:03;0.70;;;0.50;;
43696;SDS011;29301;47.620;19.560;2023-01-04T11:49:33;0.70;;;0.50;;
43696;SDS011;29301;47.620;19.560;2023-01-04T11:52:00;0.70;;;0.50;;
43696;SDS011;29301;47.620;19.560;2023-01-04T11:54:25;0.70;;;0.50;;
43696;SDS011;29301;47.620;19.560;2023-01-04T11:59:34;0.70;;;0.50;;
43696;SDS011;29301;47.620;19.560;2023-01-04T12:02:17;0.70;;;0.50;;
43696;SDS011;29301;47.620;19.560;2023-01-04T12:04:45;0.70;;;0.50;;
43696;SDS011;29301;47.620;19.560;2023-01-04T12:09:44;0.80;;;0.60;;
43696;SDS011;29301;47.620;19.560;2023-01-04T12:12:10;0.70;;;0.50;;
43696;SDS011;29301;47.620;19.560;2023-01-04T12:14:37;0.70;;;0.50;;
43696;SDS011;29301;47.620;19.560;2023-01-04T12:19:54;0.70;;;0.50;;
43696;SDS011;29301;47.620;19.560;2023-01-04T12:22:39;0.70;;;0.50;;
43696;SDS011;29301;47.620;19.560;2023-01-04T12:25:48;0.70;;;0.50;;
43696;SDS011;29301;47.620;19.560;2023-01-04T12:28:02;0.70;;;0.50;;
43696;SDS011;29301;47.620;19.560;2023-01-04T12:35:59;0.70;;;0.50;;
43696;SDS011;29301;47.620;19.560;2023-01-04T12:41:19;0.80;;;0.52;;
43696;SDS011;29301;47.620;19.560;2023-01-04T12:43:48;0.70;;;0.50;;
43696;SDS011;29301;47.620;19.560;2023-01-04T12:54:52;0.70;;;0.60;;
43696;SDS011;29301;47.620;19.560;2023-01-04T12:57:31;0.80;;;0.50;;
43696;SDS011;29301;47.620;19.560;2023-01-04T13:00:05;0.70;;;0.50;;
43696;SDS011;29301;47.620;19.560;2023-01-04T13:21:27;0.70;;;0.50;;
43696;SDS011;29301;47.620;19.560;2023-01-04T13:24:40;0.70;;;0.50;;
43696;SDS011;29301;47.620;19.560;2023-01-04T13:26:52;0.70;;;0.50;;
43696;SDS011;29301;47.620;19.560;2023-01-04T13:31:54;0.70;;;0.50;;
43696;SDS011;29301;47.620;19.560;2023-01-04T13:48:21;0.70;;;0.50;;
43696;SDS011;29301;47.620;19.560;2023-01-04T13:51:02;0.70;;;0.50;;
43696;SDS011;29301;47.620;19.560;2023-01-04T13:53:30;0.70;;;0.50;;
43696;SDS011;29301;47.620;19.560;2023-01-04T13:55:57;0.70;;;0.50;;
43696;SDS011;29301;47.620;19.560;2023-01-04T13:58:33;0.80;;;0.50;;
43696;SDS011;29301;47.620;19.560;2023-01-04T14:03:33;0.70;;;0.50;;
43696;SDS011;29301;47.620;19.560;2023-01-04T14:08:35;0.70;;;0.50;;
43696;SDS011;29301;47.620;19.560;2023-01-04T14:11:20;0.80;;;0.60;;
43696;SDS011;29301;47.620;19.560;2023-01-04T14:24:54;0.80;;;0.60;;
43696;SDS011;29301;47.620;19.560;2023-01-04T14:27:29;0.70;;;0.60;;
43696;SDS011;29301;47.620;19.560;2023-01-04T14:32:59;0.70;;;0.50;;
43696;SDS011;29301;47.620;19.560;2023-01-04T14:35:28;0.70;;;0.50;;
43696;SDS011;29301;47.620;19.560;2023-01-04T14:37:54;0.70;;;0.55;;
43696;SDS011;29301;47.620;19.560;2023-01-04T14:40:28;0.70;;;0.50;;
43696;SDS011;29301;47.620;19.560;2023-01-04T14:42:57;0.80;;;0.50;;
43696;SDS011;29301;47.620;19.560;2023-01-04T14:45:23;0.70;;;0.50;;
43696;SDS011;29301;47.620;19.560;2023-01-04T14:47:49;0.70;;;0.50;;
43696;SDS011;29301;47.620;19.560;2023-01-04T14:50:16;0.80;;;0.55;;
43696;SDS011;29301;47.620;19.560;2023-01-04T14:52:54;0.70;;;0.50;;
43696;SDS011;29301;47.620;19.560;2023-01-04T14:55:20;0.70;;;0.50;;
43696;SDS011;29301;47.620;19.560;2023-01-04T14:57:47;0.80;;;0.57;;
43696;SDS011;29301;47.620;19.560;2023-01-04T15:00:16;0.70;;;0.50;;
43696;SDS011;29301;47.620;19.560;2023-01-04T15:02:42;0.70;;;0.50;;
43696;SDS011;29301;47.620;19.560;2023-01-04T15:05:10;0.70;;;0.50;;
43696;SDS011;29301;47.620;19.560;2023-01-04T15:07:37;0.80;;;0.50;;
43696;SDS011;29301;47.620;19.560;2023-01-04T15:10:05;0.80;;;0.60;;
43696;SDS011;29301;47.620;19.560;2023-01-04T15:12:48;0.80;;;0.60;;
43696;SDS011;29301;47.620;19.560;2023-01-04T15:15:14;0.80;;;0.60;;
43696;SDS011;29301;47.620;19.560;2023-01-04T15:17:40;0.80;;;0.60;;
43696;SDS011;29301;47.620;19.560;2023-01-04T15:20:06;0.80;;;0.60;;
43696;SDS011;29301;47.620;19.560;2023-01-04T15:22:32;0.80;;;0.60;;
43696;SDS011;29301;47.620;19.560;2023-01-04T15:24:58;0.75;;;0.55;;
43696;SDS011;29301;47.620;19.560;2023-01-04T15:27:24;0.70;;;0.60;;
43696;SDS011;29301;47.620;19.560;2023-01-04T15:29:50;0.90;;;0.70;;
43696;SDS011;29301;47.620;19.560;2023-01-04T15:32:15;0.85;;;0.60;;
43696;SDS011;29301;47.620;19.560;2023-01-04T15:34:41;1.00;;;0.70;;
43696;SDS011;29301;47.620;19.560;2023-01-04T15:37:07;0.90;;;0.68;;
43696;SDS011;29301;47.620;19.560;2023-01-04T15:39:32;0.90;;;0.60;;
43696;SDS011;29301;47.620;19.560;2023-01-04T15:41:58;0.90;;;0.70;;
43696;SDS011;29301;47.620;19.560;2023-01-04T15:44:42;0.85;;;0.60;;
43696;SDS011;29301;47.620;19.560;2023-01-04T15:47:08;0.80;;;0.60;;
43696;SDS011;29301;47.620;19.560;2023-01-04T15:49:34;0.90;;;0.65;;
43696;SDS011;29301;47.620;19.560;2023-01-04T15:51:59;0.90;;;0.60;;
43696;SDS011;29301;47.620;19.560;2023-01-04T15:54:26;0.90;;;0.70;;
43696;SDS011;29301;47.620;19.560;2023-01-04T15:56:52;0.88;;;0.60;;
43696;SDS011;29301;47.620;19.560;2023-01-04T15:59:18;1.00;;;0.60;;
43696;SDS011;29301;47.620;19.560;2023-01-04T16:01:44;1.00;;;0.70;;
43696;SDS011;29301;47.620;19.560;2023-01-04T16:04:10;0.90;;;0.60;;
43696;SDS011;29301;47.620;19.560;2023-01-04T16:06:36;0.90;;;0.70;;
43696;SDS011;29301;47.620;19.560;2023-01-04T16:09:02;1.00;;;0.70;;
43696;SDS011;29301;47.620;19.560;2023-01-04T16:11:28;0.85;;;0.60;;
43696;SDS011;29301;47.620;19.560;2023-01-04T16:13:54;0.80;;;0.60;;
43696;SDS011;29301;47.620;19.560;2023-01-04T16:16:21;0.80;;;0.60;;
43696;SDS011;29301;47.620;19.560;2023-01-04T16:18:49;0.85;;;0.60;;
43696;SDS011;29301;47.620;19.560;2023-01-04T16:21:23;1.00;;;0.70;;
43696;SDS011;29301;47.620;19.560;2023-01-04T16:23:50;1.00;;;0.70;;
43696;SDS011;29301;47.620;19.560;2023-01-04T16:26:16;0.80;;;0.60;;
43696;SDS011;29301;47.620;19.560;2023-01-04T16:28:42;0.80;;;0.60;;
43696;SDS011;29301;47.620;19.560;2023-01-04T16:31:14;0.90;;;0.65;;
43696;SDS011;29301;47.620;19.560;2023-01-04T16:33:39;0.90;;;0.70;;
43696;SDS011;29301;47.620;19.560;2023-01-04T16:36:07;0.90;;;0.60;;
43696;SDS011;29301;47.620;19.560;2023-01-04T16:38:35;0.90;;;0.65;;
43696;SDS011;29301;47.620;19.560;2023-01-04T16:41:07;0.80;;;0.60;;
43696;SDS011;29301;47.620;19.560;2023-01-04T16:43:43;0.80;;;0.60;;
43696;SDS011;29301;47.620;19.560;2023-01-04T16:48:36;0.90;;;0.60;;
43696;SDS011;29301;47.620;19.560;2023-01-04T16:51:09;1.00;;;0.70;;
43696;SDS011;29301;47.620;19.560;2023-01-04T16:53:35;0.90;;;0.70;;
43696;SDS011;29301;47.620;19.560;2023-01-04T16:56:02;1.00;;;0.70;;
43696;SDS011;29301;47.620;19.560;2023-01-04T16:58:29;0.80;;;0.60;;
43696;SDS011;29301;47.620;19.560;2023-01-04T17:00:55;0.90;;;0.70;;
43696;SDS011;29301;47.620;19.560;2023-01-04T17:03:20;0.93;;;0.63;;
43696;SDS011;29301;47.620;19.560;2023-01-04T17:05:46;0.90;;;0.60;;
43696;SDS011;29301;47.620;19.560;2023-01-04T17:08:12;1.02;;;0.70;;
43696;SDS011;29301;47.620;19.560;2023-01-04T17:10:37;0.90;;;0.60;;
43696;SDS011;29301;47.620;19.560;2023-01-04T17:13:03;0.90;;;0.60;;
43696;SDS011;29301;47.620;19.560;2023-01-04T17:15:30;0.90;;;0.60;;
43696;SDS011;29301;47.620;19.560;2023-01-04T17:17:56;0.80;;;0.60;;
43696;SDS011;29301;47.620;19.560;2023-01-04T17:20:21;0.80;;;0.60;;
43696;SDS011;29301;47.620;19.560;2023-01-04T17:22:48;0.80;;;0.60;;
43696;SDS011;29301;47.620;19.560;2023-01-04T17:25:14;0.80;;;0.60;;
43696;SDS011;29301;47.620;19.560;2023-01-04T17:27:39;0.80;;;0.60;;
43696;SDS011;29301;47.620;19.560;2023-01-04T17:30:05;0.80;;;0.60;;
43696;SDS011;29301;47.620;19.560;2023-01-04T17:32:31;0.90;;;0.60;;